createdAt,value
2023-02-04T00:00:10.059Z,95927.00
2023-02-04T00:01:10.035Z,95927.00
2023-02-04T00:02:10.037Z,95925.00
2023-02-04T00:03:10.097Z,95909.00
2023-02-04T00:55:00.812Z,95901.00
2023-02-04T00:56:01.712Z,95897.00
2023-02-04T00:57:01.749Z,95893.00
2023-02-04T00:58:01.700Z,95899.00
2023-02-04T00:59:01.682Z,95887.00
2023-02-04T01:00:01.675Z,95874.00
2023-02-04T01:01:01.761Z,95875.00
2023-02-04T01:02:01.659Z,95883.00
2023-02-04T01:03:01.702Z,95889.00
2023-02-04T01:04:01.640Z,95895.00
2023-02-04T01:05:01.653Z,95897.00
2023-02-04T01:06:01.675Z,95891.00
2023-02-04T01:07:01.771Z,95883.00
2023-02-04T01:08:01.626Z,95879.00
2023-02-04T01:09:01.604Z,95881.00
2023-02-04T01:10:01.583Z,95881.00
2023-02-04T01:11:01.611Z,95885.00
2023-02-04T01:12:01.578Z,95887.00
2023-02-04T01:13:01.563Z,95879.00
2023-02-04T01:14:01.563Z,95875.00
2023-02-04T01:15:01.545Z,95875.00
2023-02-04T01:16:01.590Z,95870.00
2023-02-04T01:17:01.524Z,95862.00
2023-02-04T01:18:01.548Z,95856.00
2023-02-04T01:19:01.509Z,95862.00
2023-02-04T01:20:01.555Z,95879.00
2023-02-04T01:21:01.523Z,95881.00
2023-02-04T01:22:01.485Z,95875.00
2023-02-04T01:23:01.478Z,95870.00
2023-02-04T01:24:01.463Z,95877.00
2023-02-04T01:25:01.455Z,95877.00
2023-02-04T01:26:01.446Z,95872.00
2023-02-04T01:27:01.475Z,95868.00
2023-02-04T01:28:01.464Z,95862.00
2023-02-04T01:29:01.418Z,95864.00
2023-02-04T01:30:01.406Z,95875.00
2023-02-04T01:31:01.772Z,95885.00
2023-02-04T01:32:01.444Z,95887.00
2023-02-04T01:33:01.382Z,95887.00
2023-02-04T01:34:01.381Z,95891.00
2023-02-04T01:35:01.375Z,95897.00
2023-02-04T01:36:01.364Z,95899.00
2023-02-04T01:37:01.347Z,95903.00
2023-02-04T01:38:01.334Z,95903.00
2023-02-04T01:39:01.321Z,95899.00
2023-02-04T01:40:01.311Z,95901.00
2023-02-04T01:41:01.308Z,95901.00
2023-02-04T01:42:01.306Z,95899.00
2023-02-04T01:43:01.328Z,95895.00
2023-02-04T01:44:01.283Z,95883.00
2023-02-04T01:45:01.276Z,95877.00
2023-02-04T01:46:01.322Z,95874.00
2023-02-04T01:47:01.253Z,95881.00
2023-02-04T01:48:01.244Z,95883.00
2023-02-04T01:49:01.234Z,95883.00
2023-02-04T01:50:01.230Z,95881.00
2023-02-04T01:51:01.218Z,95879.00
2023-02-04T01:52:01.212Z,95883.00
2023-02-04T01:53:01.199Z,95881.00
2023-02-04T01:54:01.189Z,95887.00
2023-02-04T01:55:01.179Z,95895.00
2023-02-04T01:56:01.171Z,95897.00
2023-02-04T01:57:01.163Z,95905.00
2023-02-04T01:58:01.194Z,95905.00
2023-02-04T01:59:01.184Z,95893.00
2023-02-04T02:00:01.138Z,95895.00
2023-02-04T02:01:01.218Z,95899.00
2023-02-04T02:02:01.169Z,95913.00
2023-02-04T02:03:01.115Z,95928.00
2023-02-04T02:04:01.115Z,95925.00
2023-02-04T02:05:01.095Z,95913.00
2023-02-04T02:06:01.085Z,95907.00
2023-02-04T02:07:01.070Z,95915.00
2023-02-04T02:08:01.065Z,95927.00
2023-02-04T02:09:01.063Z,95930.00
2023-02-04T02:10:01.045Z,95928.00
2023-02-04T02:11:01.039Z,95925.00
2023-02-04T02:12:01.032Z,95928.00
2023-02-04T02:13:01.031Z,95928.00
2023-02-04T02:14:01.008Z,95932.00
2023-02-04T02:15:01.028Z,95938.00
2023-02-04T02:16:01.008Z,95930.00
2023-02-04T02:17:01.121Z,95915.00
2023-02-04T02:18:00.985Z,95917.00
2023-02-04T02:19:00.965Z,95915.00
2023-02-04T02:20:00.964Z,95911.00
2023-02-04T02:21:00.952Z,95901.00
2023-02-04T02:22:00.972Z,95891.00
2023-02-04T02:23:00.929Z,95893.00
2023-02-04T02:24:00.937Z,95901.00
2023-02-04T02:25:00.912Z,95911.00
2023-02-04T02:26:00.909Z,95928.00
2023-02-04T02:27:00.914Z,95928.00
2023-02-04T02:28:00.977Z,95925.00
2023-02-04T02:29:00.881Z,95913.00
2023-02-04T02:30:00.911Z,95925.00
2023-02-04T02:31:01.054Z,95927.00
2023-02-04T02:32:00.850Z,95917.00
2023-02-04T02:33:00.851Z,95913.00
2023-02-04T02:34:00.834Z,95909.00
2023-02-04T02:35:00.838Z,95911.00
2023-02-04T02:36:00.818Z,95913.00
2023-02-04T02:37:00.808Z,95917.00
2023-02-04T02:38:00.798Z,95925.00
2023-02-04T02:39:00.786Z,95927.00
2023-02-04T02:40:00.830Z,95925.00
2023-02-04T02:41:00.771Z,95917.00
2023-02-04T02:42:00.767Z,95928.00
2023-02-04T02:43:00.760Z,95917.00
2023-02-04T02:44:00.742Z,95917.00
2023-02-04T02:45:00.733Z,95934.00
2023-02-04T02:46:00.780Z,95938.00
2023-02-04T02:47:00.750Z,95944.00
2023-02-04T02:48:00.712Z,95948.00
2023-02-04T02:49:00.707Z,95950.00
2023-02-04T02:50:00.708Z,95958.00
2023-02-04T02:51:00.676Z,95964.00
2023-02-04T02:52:00.670Z,95970.00
2023-02-04T02:53:00.664Z,95962.00
2023-02-04T02:54:00.660Z,95950.00
2023-02-04T02:55:00.646Z,95948.00
2023-02-04T02:56:00.632Z,95948.00
2023-02-04T02:57:00.621Z,95952.00
2023-02-04T02:58:00.612Z,95958.00
2023-02-04T02:59:00.606Z,95960.00
2023-02-04T03:00:00.602Z,95954.00
2023-02-04T03:01:00.638Z,95958.00
2023-02-04T03:02:00.580Z,95964.00
2023-02-04T03:03:00.601Z,95964.00
2023-02-04T03:04:00.565Z,95960.00
2023-02-04T03:05:00.548Z,95956.00
2023-02-04T03:06:00.575Z,95948.00
2023-02-04T03:07:00.534Z,95942.00
2023-02-04T03:08:00.532Z,95944.00
2023-02-04T03:09:00.516Z,95952.00
2023-02-04T03:10:00.527Z,95958.00
2023-02-04T03:11:00.503Z,95950.00
2023-02-04T03:12:00.484Z,95950.00
2023-02-04T03:13:00.483Z,95952.00
2023-02-04T03:14:00.496Z,95954.00
2023-02-04T03:15:00.467Z,95948.00
2023-02-04T03:16:00.537Z,95942.00
2023-02-04T03:17:00.444Z,95942.00
2023-02-04T03:18:00.436Z,95952.00
2023-02-04T03:19:00.467Z,95960.00
2023-02-04T03:20:00.419Z,95958.00
2023-02-04T03:21:00.412Z,95956.00
2023-02-04T03:22:00.401Z,95958.00
2023-02-04T03:23:00.404Z,95962.00
2023-02-04T03:24:00.391Z,95968.00
2023-02-04T03:25:00.385Z,95972.00
2023-02-04T03:26:00.390Z,95972.00
2023-02-04T03:27:00.393Z,95968.00
2023-02-04T03:28:00.415Z,95972.00
2023-02-04T03:29:00.339Z,95983.00
2023-02-04T03:30:00.335Z,95983.00
2023-02-04T03:31:00.442Z,95968.00
2023-02-04T03:32:00.558Z,95964.00
2023-02-04T03:33:00.309Z,95962.00
2023-02-04T03:34:00.294Z,95962.00
2023-02-04T03:35:00.311Z,95960.00
2023-02-04T03:36:00.278Z,95958.00
2023-02-04T03:37:00.308Z,95956.00
2023-02-04T03:38:00.262Z,95958.00
2023-02-04T03:39:00.254Z,95972.00
2023-02-04T03:40:00.247Z,95976.00
2023-02-04T03:41:00.234Z,95976.00
2023-02-04T03:42:00.217Z,95972.00
2023-02-04T03:43:00.212Z,95972.00
2023-02-04T03:44:00.201Z,95974.00
2023-02-04T03:45:00.199Z,95974.00
2023-02-04T03:46:00.280Z,95979.00
2023-02-04T03:47:00.220Z,95979.00
2023-02-04T03:48:00.174Z,95985.00
2023-02-04T03:49:00.158Z,95989.00
2023-02-04T03:50:00.188Z,95991.00
2023-02-04T03:51:00.166Z,95991.00
2023-02-04T03:52:00.133Z,95987.00
2023-02-04T03:53:00.136Z,95981.00
2023-02-04T03:54:00.124Z,95981.00
2023-02-04T03:55:00.124Z,95985.00
2023-02-04T03:56:00.125Z,95995.00
2023-02-04T03:57:00.113Z,96005.00
2023-02-04T03:58:00.116Z,96013.00
2023-02-04T03:59:00.107Z,96011.00
2023-02-04T04:00:00.076Z,96013.00
2023-02-04T04:01:00.054Z,96005.00
2023-02-04T04:02:00.147Z,96007.00
2023-02-04T04:03:00.140Z,96021.00
2023-02-04T04:04:00.028Z,96021.00
2023-02-04T04:05:00.298Z,96017.00
2023-02-04T04:06:00.005Z,96019.00
2023-02-04T04:07:00.033Z,96019.00
2023-02-04T04:07:59.995Z,96009.00
2023-02-04T04:08:59.977Z,96003.00
2023-02-04T04:09:59.977Z,96009.00
2023-02-04T04:10:59.963Z,96009.00
2023-02-04T04:11:59.947Z,96015.00
2023-02-04T04:12:59.937Z,96021.00
2023-02-04T04:13:59.933Z,96017.00
2023-02-04T04:14:59.970Z,96017.00
2023-02-04T04:15:59.945Z,96017.00
2023-02-04T04:16:59.933Z,96015.00
2023-02-04T04:17:59.893Z,96011.00
2023-02-04T04:18:59.883Z,96015.00
2023-02-04T04:19:59.873Z,96015.00
2023-02-04T04:20:59.879Z,96009.00
2023-02-04T04:21:59.855Z,96011.00
2023-02-04T04:22:59.869Z,96021.00
2023-02-04T04:23:59.847Z,96026.00
2023-02-04T04:24:59.837Z,96017.00
2023-02-04T04:25:59.819Z,96023.00
2023-02-04T04:26:59.811Z,96030.00
2023-02-04T04:27:59.845Z,96038.00
2023-02-04T04:28:59.821Z,96036.00
2023-02-04T04:29:59.791Z,96032.00
2023-02-04T04:30:59.872Z,96023.00
2023-02-04T04:31:59.808Z,96026.00
2023-02-04T04:32:59.752Z,96042.00
2023-02-04T04:33:59.745Z,96048.00
2023-02-04T04:34:59.730Z,96050.00
2023-02-04T04:35:59.725Z,96048.00
2023-02-04T04:36:59.718Z,96046.00
2023-02-04T04:37:59.709Z,96040.00
2023-02-04T04:38:59.799Z,96030.00
2023-02-04T04:39:59.689Z,96026.00
2023-02-04T04:40:59.674Z,96034.00
2023-02-04T04:41:59.665Z,96034.00
2023-02-04T04:42:59.659Z,96036.00
2023-02-04T04:43:59.662Z,96040.00
2023-02-04T04:44:59.638Z,96048.00
2023-02-04T04:45:59.642Z,96054.00
2023-02-04T04:46:59.697Z,96054.00
2023-02-04T04:47:59.632Z,96056.00
2023-02-04T04:48:59.609Z,96066.00
2023-02-04T04:49:59.589Z,96068.00
2023-02-04T04:50:59.625Z,96054.00
2023-02-04T04:51:59.578Z,96050.00
2023-02-04T04:52:59.594Z,96056.00
2023-02-04T04:53:59.581Z,96073.00
2023-02-04T04:54:59.605Z,96077.00
2023-02-04T04:55:59.530Z,96075.00
2023-02-04T04:56:59.558Z,96079.00
2023-02-04T04:57:59.513Z,96079.00
2023-02-04T04:58:59.501Z,96085.00
2023-02-04T04:59:59.504Z,96085.00
2023-02-04T05:00:59.582Z,96081.00
2023-02-04T05:01:59.484Z,96081.00
2023-02-04T05:02:59.463Z,96095.00
2023-02-04T05:03:59.455Z,96101.00
2023-02-04T05:04:59.594Z,96103.00
2023-02-04T05:05:59.461Z,96101.00
2023-02-04T05:06:59.437Z,96103.00
2023-02-04T05:07:59.431Z,96095.00
2023-02-04T05:08:59.421Z,96091.00
2023-02-04T05:09:59.404Z,96091.00
2023-02-04T05:10:59.429Z,96093.00
2023-02-04T05:11:59.442Z,96101.00
2023-02-04T05:12:59.379Z,96107.00
2023-02-04T05:13:59.373Z,96107.00
2023-02-04T05:14:59.361Z,96105.00
2023-02-04T05:15:59.408Z,96101.00
2023-02-04T05:16:59.339Z,96097.00
2023-02-04T05:17:59.334Z,96105.00
2023-02-04T05:18:59.320Z,96113.00
2023-02-04T05:19:59.315Z,96117.00
2023-02-04T05:20:59.310Z,96113.00
2023-02-04T05:21:59.308Z,96113.00
2023-02-04T05:22:59.290Z,96113.00
2023-02-04T05:23:59.298Z,96117.00
2023-02-04T05:24:59.274Z,96122.00
2023-02-04T05:25:59.262Z,96122.00
2023-02-04T05:26:59.291Z,96120.00
2023-02-04T05:27:59.342Z,96119.00
2023-02-04T05:28:59.233Z,96119.00
2023-02-04T05:29:59.230Z,96120.00
2023-02-04T05:30:59.276Z,96126.00
2023-02-04T05:31:59.247Z,96128.00
2023-02-04T05:32:59.203Z,96120.00
2023-02-04T05:33:59.188Z,96117.00
2023-02-04T05:34:59.181Z,96126.00
2023-02-04T05:35:59.169Z,96128.00
2023-02-04T05:36:59.159Z,96120.00
2023-02-04T05:37:59.163Z,96119.00
2023-02-04T05:38:59.136Z,96122.00
2023-02-04T05:39:59.137Z,96124.00
2023-02-04T05:40:59.123Z,96120.00
2023-02-04T05:41:59.110Z,96122.00
2023-02-04T05:42:59.127Z,96124.00
2023-02-04T05:43:59.099Z,96132.00
2023-02-04T05:44:59.125Z,96140.00
2023-02-04T05:45:59.158Z,96142.00
2023-02-04T05:46:59.066Z,96148.00
2023-02-04T05:47:59.055Z,96154.00
2023-02-04T05:48:59.055Z,96158.00
2023-02-04T05:49:59.070Z,96158.00
2023-02-04T05:50:59.034Z,96158.00
2023-02-04T05:51:59.029Z,96152.00
2023-02-04T05:52:59.012Z,96150.00
2023-02-04T05:53:59.012Z,96152.00
2023-02-04T05:54:58.997Z,96152.00
2023-02-04T05:55:58.985Z,96158.00
2023-02-04T05:56:58.980Z,96160.00
2023-02-04T05:57:58.965Z,96169.00
2023-02-04T05:58:58.980Z,96173.00
2023-02-04T05:59:58.957Z,96185.00
2023-02-04T06:00:58.934Z,96195.00
2023-02-04T06:01:58.932Z,96197.00
2023-02-04T06:02:59.009Z,96197.00
2023-02-04T06:03:58.928Z,96191.00
2023-02-04T06:04:58.904Z,96185.00
2023-02-04T06:05:58.902Z,96183.00
2023-02-04T06:06:58.891Z,96185.00
2023-02-04T06:07:58.870Z,96189.00
2023-02-04T06:08:58.861Z,96197.00
2023-02-04T06:10:00.140Z,96207.00
2023-02-04T06:10:58.902Z,96217.00
2023-02-04T06:11:58.892Z,96225.00
2023-02-04T06:12:58.892Z,96227.00
2023-02-04T06:13:58.877Z,96221.00
2023-02-04T06:14:58.897Z,96219.00
2023-02-04T06:15:58.856Z,96217.00
2023-02-04T06:16:58.903Z,96219.00
2023-02-04T06:17:58.840Z,96221.00
2023-02-04T06:18:58.835Z,96223.00
2023-02-04T06:19:58.853Z,96223.00
2023-02-04T06:20:58.809Z,96223.00
2023-02-04T06:21:58.813Z,96223.00
2023-02-04T06:22:58.827Z,96227.00
2023-02-04T06:23:58.782Z,96228.00
2023-02-04T06:24:58.773Z,96225.00
2023-02-04T06:25:58.775Z,96225.00
2023-02-04T06:26:58.756Z,96221.00
2023-02-04T06:27:58.839Z,96221.00
2023-02-04T06:28:58.758Z,96219.00
2023-02-04T06:29:58.727Z,96227.00
2023-02-04T06:30:58.871Z,96230.00
2023-02-04T06:31:58.771Z,96234.00
2023-02-04T06:32:58.709Z,96234.00
2023-02-04T06:33:58.707Z,96228.00
2023-02-04T06:34:58.692Z,96228.00
2023-02-04T06:35:58.679Z,96234.00
2023-02-04T06:36:58.671Z,96242.00
2023-02-04T06:37:58.659Z,96240.00
2023-02-04T06:38:58.655Z,96246.00
2023-02-04T06:39:58.646Z,96242.00
2023-02-04T06:40:58.635Z,96240.00
2023-02-04T06:41:58.628Z,96240.00
2023-02-04T06:42:58.615Z,96238.00
2023-02-04T06:43:58.628Z,96238.00
2023-02-04T06:44:58.598Z,96238.00
2023-02-04T06:45:58.698Z,96242.00
2023-02-04T06:46:58.601Z,96250.00
2023-02-04T06:47:58.573Z,96258.00
2023-02-04T06:48:58.569Z,96260.00
2023-02-04T06:49:58.556Z,96262.00
2023-02-04T06:50:58.548Z,96266.00
2023-02-04T06:51:58.536Z,96264.00
2023-02-04T06:52:58.526Z,96264.00
2023-02-04T06:53:58.513Z,96266.00
2023-02-04T06:54:58.514Z,96266.00
2023-02-04T06:55:58.501Z,96272.00
2023-02-04T06:56:58.490Z,96266.00
2023-02-04T06:57:58.486Z,96272.00
2023-02-04T06:58:58.474Z,96281.00
2023-02-04T06:59:58.457Z,96283.00
2023-02-04T07:00:58.567Z,96283.00
2023-02-04T07:01:58.442Z,96281.00
2023-02-04T07:02:58.461Z,96283.00
2023-02-04T07:03:58.425Z,96283.00
2023-02-04T07:04:58.416Z,96287.00
2023-02-04T07:05:58.409Z,96293.00
2023-02-04T07:06:58.394Z,96293.00
2023-02-04T07:07:58.390Z,96295.00
2023-02-04T07:08:58.383Z,96299.00
2023-02-04T07:09:58.372Z,96301.00
2023-02-04T07:10:58.360Z,96305.00
2023-02-04T07:11:58.350Z,96309.00
2023-02-04T07:12:58.346Z,96309.00
2023-02-04T07:13:58.363Z,96311.00
2023-02-04T07:14:58.318Z,96315.00
2023-02-04T07:15:58.378Z,96319.00
2023-02-04T07:16:58.309Z,96317.00
2023-02-04T07:17:58.304Z,96315.00
2023-02-04T07:18:58.311Z,96309.00
2023-02-04T07:19:58.277Z,96307.00
2023-02-04T07:20:58.270Z,96309.00
2023-02-04T07:21:58.260Z,96319.00
2023-02-04T07:22:58.255Z,96326.00
2023-02-04T07:23:58.244Z,96334.00
2023-02-04T07:24:58.237Z,96340.00
2023-02-04T07:25:58.227Z,96344.00
2023-02-04T07:26:58.217Z,96346.00
2023-02-04T07:27:58.218Z,96348.00
2023-02-04T07:28:58.195Z,96348.00
2023-02-04T07:29:58.213Z,96346.00
2023-02-04T07:30:58.280Z,96344.00
2023-02-04T07:31:58.296Z,96342.00
2023-02-04T07:32:58.160Z,96344.00
2023-02-04T07:33:58.164Z,96344.00
2023-02-04T07:34:58.172Z,96354.00
2023-02-04T07:35:58.135Z,96360.00
2023-02-04T07:36:58.227Z,96366.00
2023-02-04T07:37:58.113Z,96368.00
2023-02-04T07:38:58.108Z,96364.00
2023-02-04T07:39:58.103Z,96360.00
2023-02-04T07:40:58.082Z,96358.00
2023-02-04T07:41:58.073Z,96358.00
2023-02-04T07:42:58.072Z,96356.00
2023-02-04T07:43:58.052Z,96362.00
2023-02-04T07:44:58.041Z,96362.00
2023-02-04T07:45:58.058Z,96362.00
2023-02-04T07:46:58.022Z,96364.00
2023-02-04T07:47:58.024Z,96364.00
2023-02-04T07:48:58.008Z,96368.00
2023-02-04T07:49:58.003Z,96371.00
2023-02-04T07:50:58.008Z,96375.00
2023-02-04T07:51:57.986Z,96377.00
2023-02-04T07:52:57.964Z,96379.00
2023-02-04T07:53:57.960Z,96383.00
2023-02-04T07:54:57.949Z,96383.00
2023-02-04T07:55:57.955Z,96385.00
2023-02-04T07:56:57.921Z,96383.00
2023-02-04T07:57:57.917Z,96387.00
2023-02-04T07:58:57.907Z,96389.00
2023-02-04T07:59:57.900Z,96393.00
2023-02-04T08:00:57.890Z,96399.00
2023-02-04T08:01:57.942Z,96397.00
2023-02-04T08:02:57.924Z,96401.00
2023-02-04T08:03:57.865Z,96399.00
2023-02-04T08:04:57.877Z,96403.00
2023-02-04T08:05:57.838Z,96401.00
2023-02-04T08:06:57.865Z,96403.00
2023-02-04T08:07:57.824Z,96405.00
2023-02-04T08:08:57.817Z,96407.00
2023-02-04T08:09:57.803Z,96409.00
2023-02-04T08:10:58.761Z,96411.00
2023-02-04T08:11:57.783Z,96407.00
2023-02-04T08:12:57.773Z,96407.00
2023-02-04T08:13:57.776Z,96411.00
2023-02-04T08:14:57.761Z,96411.00
2023-02-04T08:15:57.797Z,96415.00
2023-02-04T08:16:57.740Z,96418.00
2023-02-04T08:17:57.742Z,96415.00
2023-02-04T08:18:57.722Z,96413.00
2023-02-04T08:19:57.721Z,96420.00
2023-02-04T08:20:57.702Z,96426.00
2023-02-04T08:21:57.694Z,96426.00
2023-02-04T08:22:57.707Z,96430.00
2023-02-04T08:23:57.682Z,96426.00
2023-02-04T08:24:57.664Z,96430.00
2023-02-04T08:25:57.667Z,96430.00
2023-02-04T08:26:57.645Z,96430.00
2023-02-04T08:27:57.648Z,96428.00
2023-02-04T08:28:57.630Z,96430.00
2023-02-04T08:29:57.617Z,96442.00
2023-02-04T08:30:57.734Z,96442.00
2023-02-04T08:31:57.661Z,96450.00
2023-02-04T08:32:57.595Z,96452.00
2023-02-04T08:33:57.582Z,96452.00
2023-02-04T08:34:57.570Z,96448.00
2023-02-04T08:35:57.561Z,96444.00
2023-02-04T08:36:57.546Z,96448.00
2023-02-04T08:37:57.540Z,96452.00
2023-02-04T08:38:57.659Z,96454.00
2023-02-04T08:39:57.536Z,96456.00
2023-02-04T08:40:57.519Z,96454.00
2023-02-04T08:41:57.501Z,96452.00
2023-02-04T08:42:57.491Z,96448.00
2023-02-04T08:43:57.483Z,96444.00
2023-02-04T08:44:57.488Z,96446.00
2023-02-04T08:45:57.479Z,96448.00
2023-02-04T08:46:57.537Z,96444.00
2023-02-04T08:47:57.478Z,96444.00
2023-02-04T08:48:57.450Z,96442.00
2023-02-04T08:49:57.444Z,96444.00
2023-02-04T08:50:57.439Z,96446.00
2023-02-04T08:51:57.434Z,96450.00
2023-02-04T08:52:57.419Z,96452.00
2023-02-04T08:53:57.411Z,96456.00
2023-02-04T08:54:57.426Z,96454.00
2023-02-04T08:55:57.401Z,96452.00
2023-02-04T08:56:57.420Z,96450.00
2023-02-04T08:57:57.383Z,96456.00
2023-02-04T08:58:57.372Z,96456.00
2023-02-04T08:59:57.368Z,96458.00
2023-02-04T09:00:57.385Z,96456.00
2023-02-04T09:01:57.464Z,96458.00
2023-02-04T09:02:57.343Z,96458.00
2023-02-04T09:03:57.331Z,96458.00
2023-02-04T09:04:57.322Z,96460.00
2023-02-04T09:05:57.316Z,96460.00
2023-02-04T09:06:57.309Z,96456.00
2023-02-04T09:07:57.300Z,96454.00
2023-02-04T09:08:57.321Z,96450.00
2023-02-04T09:09:57.282Z,96446.00
2023-02-04T09:10:57.290Z,96444.00
2023-02-04T09:11:57.257Z,96450.00
2023-02-04T09:12:57.261Z,96452.00
2023-02-04T09:13:57.243Z,96456.00
2023-02-04T09:14:57.237Z,96458.00
2023-02-04T09:15:57.307Z,96458.00
2023-02-04T09:16:57.219Z,96458.00
2023-02-04T09:17:57.218Z,96458.00
2023-02-04T09:18:57.229Z,96460.00
2023-02-04T09:19:58.097Z,96462.00
2023-02-04T09:20:57.178Z,96460.00
2023-02-04T09:21:57.176Z,96456.00
2023-02-04T09:22:57.170Z,96454.00
2023-02-04T09:23:57.165Z,96454.00
2023-02-04T09:24:57.150Z,96454.00
2023-02-04T09:25:57.144Z,96456.00
2023-02-04T09:26:57.157Z,96460.00
2023-02-04T09:27:57.178Z,96456.00
2023-02-04T09:28:57.114Z,96452.00
2023-02-04T09:29:57.137Z,96452.00
2023-02-04T09:30:57.152Z,96454.00
2023-02-04T09:31:57.132Z,96454.00
2023-02-04T09:32:57.081Z,96458.00
2023-02-04T09:33:57.072Z,96460.00
2023-02-04T09:34:57.090Z,96464.00
2023-02-04T09:35:57.050Z,96464.00
2023-02-04T09:36:57.048Z,96464.00
2023-02-04T09:37:57.036Z,96462.00
2023-02-04T09:38:57.023Z,96460.00
2023-02-04T09:39:57.013Z,96464.00
2023-02-04T09:40:57.005Z,96462.00
2023-02-04T09:41:56.992Z,96466.00
2023-02-04T09:42:57.236Z,96462.00
2023-02-04T09:43:56.979Z,96462.00
2023-02-04T09:44:56.967Z,96462.00
2023-02-04T09:45:57.032Z,96464.00
2023-02-04T09:46:56.954Z,96468.00
2023-02-04T09:47:56.942Z,96472.00
2023-02-04T09:48:56.931Z,96476.00
2023-02-04T09:49:56.921Z,96476.00
2023-02-04T09:50:56.912Z,96477.00
2023-02-04T09:51:56.909Z,96479.00
2023-02-04T09:52:56.895Z,96479.00
2023-02-04T09:53:56.898Z,96479.00
2023-02-04T09:54:56.869Z,96485.00
2023-02-04T09:55:56.856Z,96485.00
2023-02-04T09:56:56.862Z,96483.00
2023-02-04T09:57:56.841Z,96487.00
2023-02-04T09:58:56.848Z,96487.00
2023-02-04T09:59:56.813Z,96487.00
2023-02-04T10:00:56.847Z,96483.00
2023-02-04T10:01:56.801Z,96483.00
2023-02-04T10:02:56.782Z,96483.00
2023-02-04T10:03:56.838Z,96481.00
2023-02-04T10:04:56.766Z,96485.00
2023-02-04T10:05:56.749Z,96485.00
2023-02-04T10:06:56.740Z,96481.00
2023-02-04T10:07:56.739Z,96483.00
2023-02-04T10:08:56.728Z,96485.00
2023-02-04T10:09:56.712Z,96491.00
2023-02-04T10:10:58.084Z,96489.00
2023-02-04T10:11:56.704Z,96487.00
2023-02-04T10:12:56.687Z,96485.00
2023-02-04T10:13:56.679Z,96485.00
2023-02-04T10:14:56.689Z,96487.00
2023-02-04T10:15:56.664Z,96485.00
2023-02-04T10:16:58.981Z,96489.00
2023-02-04T10:17:56.638Z,96491.00
2023-02-04T10:18:56.631Z,96489.00
2023-02-04T10:19:56.619Z,96489.00
2023-02-04T10:20:56.614Z,96487.00
2023-02-04T10:21:56.610Z,96485.00
2023-02-04T10:22:56.596Z,96491.00
2023-02-04T10:23:56.592Z,96485.00
2023-02-04T10:24:56.577Z,96487.00
2023-02-04T10:25:56.565Z,96489.00
2023-02-04T10:26:56.553Z,96489.00
2023-02-04T10:27:56.575Z,96489.00
2023-02-04T10:28:56.921Z,96487.00
2023-02-04T10:29:56.537Z,96483.00
2023-02-04T10:30:56.662Z,96481.00
2023-02-04T10:31:56.555Z,96481.00
2023-02-04T10:32:56.506Z,96483.00
2023-02-04T10:33:56.499Z,96481.00
2023-02-04T10:34:56.489Z,96477.00
2023-02-04T10:35:56.497Z,96476.00
2023-02-04T10:36:56.478Z,96474.00
2023-02-04T10:37:56.465Z,96476.00
2023-02-04T10:38:56.452Z,96476.00
2023-02-04T10:39:56.447Z,96472.00
2023-02-04T10:40:56.436Z,96470.00
2023-02-04T10:41:56.426Z,96468.00
2023-02-04T10:42:56.416Z,96468.00
2023-02-04T10:43:56.409Z,96468.00
2023-02-04T10:44:56.402Z,96466.00
2023-02-04T10:45:56.440Z,96468.00
2023-02-04T10:46:56.416Z,96468.00
2023-02-04T10:47:56.370Z,96468.00
2023-02-04T10:48:56.365Z,96466.00
2023-02-04T10:49:56.357Z,96466.00
2023-02-04T10:50:56.345Z,96466.00
2023-02-04T10:51:57.857Z,96466.00
2023-02-04T10:52:56.431Z,96470.00
2023-02-04T10:53:56.416Z,96472.00
2023-02-04T10:54:56.408Z,96474.00
2023-02-04T10:55:56.397Z,96476.00
2023-02-04T10:56:56.392Z,96476.00
2023-02-04T10:57:56.387Z,96474.00
2023-02-04T10:58:56.375Z,96476.00
2023-02-04T10:59:56.373Z,96477.00
2023-02-04T11:00:56.436Z,96479.00
2023-02-04T11:01:56.348Z,96479.00
2023-02-04T11:02:56.455Z,96481.00
2023-02-04T11:03:56.330Z,96479.00
2023-02-04T11:04:56.328Z,96481.00
2023-02-04T11:05:56.313Z,96483.00
2023-02-04T11:06:56.307Z,96485.00
2023-02-04T11:07:56.300Z,96485.00
2023-02-04T11:08:56.311Z,96487.00
2023-02-04T11:09:56.284Z,96491.00
2023-02-04T11:10:56.275Z,96497.00
2023-02-04T11:11:56.264Z,96499.00
2023-02-04T11:12:56.253Z,96501.00
2023-02-04T11:13:56.248Z,96497.00
2023-02-04T11:14:56.235Z,96497.00
2023-02-04T11:15:56.256Z,96497.00
2023-02-04T11:16:56.216Z,96493.00
2023-02-04T11:17:56.216Z,96493.00
2023-02-04T11:18:56.226Z,96487.00
2023-02-04T11:19:56.206Z,96487.00
2023-02-04T11:20:56.180Z,96489.00
2023-02-04T11:21:56.184Z,96489.00
2023-02-04T11:22:56.167Z,96493.00
2023-02-04T11:23:56.154Z,96495.00
2023-02-04T11:24:56.147Z,96495.00
2023-02-04T11:25:56.140Z,96495.00
2023-02-04T11:26:56.130Z,96495.00
2023-02-04T11:27:56.163Z,96495.00
2023-02-04T11:28:56.110Z,96493.00
2023-02-04T11:29:56.101Z,96495.00
2023-02-04T11:30:56.178Z,96495.00
2023-02-04T11:31:56.210Z,96497.00
2023-02-04T11:32:56.074Z,96499.00
2023-02-04T11:33:56.068Z,96493.00
2023-02-04T11:34:56.084Z,96493.00
2023-02-04T11:35:56.052Z,96491.00
2023-02-04T11:36:56.045Z,96489.00
2023-02-04T11:37:56.129Z,96489.00
2023-02-04T11:38:56.019Z,96489.00
2023-02-04T11:39:56.008Z,96493.00
2023-02-04T11:40:55.999Z,96495.00
2023-02-04T11:41:55.994Z,96493.00
2023-02-04T11:42:56.012Z,96493.00
2023-02-04T11:43:55.982Z,96493.00
2023-02-04T11:44:55.972Z,96493.00
2023-02-04T11:45:55.975Z,96491.00
2023-02-04T11:46:55.957Z,96491.00
2023-02-04T11:47:55.940Z,96489.00
2023-02-04T11:48:55.937Z,96489.00
2023-02-04T11:49:55.920Z,96487.00
2023-02-04T11:50:55.944Z,96485.00
2023-02-04T11:51:55.909Z,96485.00
2023-02-04T11:52:55.895Z,96485.00
2023-02-04T11:53:55.897Z,96487.00
2023-02-04T11:54:55.885Z,96487.00
2023-02-04T11:55:55.866Z,96489.00
2023-02-04T11:56:55.861Z,96485.00
2023-02-04T11:57:55.855Z,96487.00
2023-02-04T11:58:55.844Z,96487.00
2023-02-04T11:59:55.831Z,96489.00
2023-02-04T12:00:55.821Z,96491.00
2023-02-04T12:01:55.816Z,96487.00
2023-02-04T12:02:55.973Z,96489.00
2023-02-04T12:03:55.872Z,96489.00
2023-02-04T12:04:55.795Z,96493.00
2023-02-04T12:05:55.783Z,96497.00
2023-02-04T12:06:55.802Z,96497.00
2023-02-04T12:07:55.760Z,96497.00
2023-02-04T12:08:55.754Z,96497.00
2023-02-04T12:09:55.742Z,96499.00
2023-02-04T12:10:55.735Z,96495.00
2023-02-04T12:11:55.729Z,96493.00
2023-02-04T12:12:55.729Z,96489.00
2023-02-04T12:13:55.714Z,96491.00
2023-02-04T12:14:55.700Z,96491.00
2023-02-04T12:15:55.823Z,96489.00
2023-02-04T12:16:55.683Z,96487.00
2023-02-04T12:17:55.707Z,96489.00
2023-02-04T12:18:55.664Z,96489.00
2023-02-04T12:19:55.660Z,96489.00
2023-02-04T12:20:55.647Z,96491.00
2023-02-04T12:21:55.638Z,96489.00
2023-02-04T12:22:55.650Z,96489.00
2023-02-04T12:23:55.619Z,96491.00
2023-02-04T12:24:55.640Z,96491.00
2023-02-04T12:25:56.214Z,96493.00
2023-02-04T12:26:55.591Z,96489.00
2023-02-04T12:27:55.702Z,96489.00
2023-02-04T12:28:55.572Z,96491.00
2023-02-04T12:29:55.594Z,96487.00
2023-02-04T12:30:55.672Z,96483.00
2023-02-04T12:31:55.623Z,96483.00
2023-02-04T12:32:55.542Z,96483.00
2023-02-04T12:33:55.525Z,96483.00
2023-02-04T12:34:55.523Z,96483.00